SAS1817 ESSA-LFPG
Flight info
| Callsign | SAS1817 |
|---|---|
| Flight time | 2h 15m |
| Altitude | 38000 |
| Route | NOSLI6G NOSLI N850 ABAMA DCT GIMRU DCT MICOS DCT IDOSA UN857 TOLVU/N0441F370 DCT RAPOR DCT VEDUS VEDUS9W |
| Aircraft | A320/M-SDE3FGHIRWY/LB1 |
Departure
| Time | 2026-05-08 17:27 |
|---|---|
| Airport | Stockholm-Arlanda Airport (ESSA) |
Arrival
| Time | 2026-05-08 19:42 |
|---|---|
| Airport | Charles de Gaulle International Airport (LFPG) |
| Time | Latitude | Longitude | Altitude | Speed | Heading |
|---|---|---|---|---|---|
| 2026-05-08 17:08 | 59.65396 | 17.93514 | 110 ft | 0 kts | 76° |
| 2026-05-08 17:18 | 59.65393 | 17.93487 | 108 ft | 2 kts | 76° |
| 2026-05-08 17:19 | 59.65389 | 17.93454 | 110 ft | 2 kts | 76° |
| 2026-05-08 17:19 | 59.65385 | 17.93421 | 110 ft | 2 kts | 52° |
| 2026-05-08 17:19 | 59.65373 | 17.93404 | 108 ft | 1 kts | 350° |
| 2026-05-08 17:23 | 59.65386 | 17.93396 | 111 ft | 7 kts | 342° |
| 2026-05-08 17:23 | 59.65474 | 17.93350 | 112 ft | 16 kts | 351° |
| 2026-05-08 17:23 | 59.65521 | 17.93217 | 112 ft | 13 kts | 259° |
| 2026-05-08 17:23 | 59.65498 | 17.93036 | 112 ft | 16 kts | 254° |
| 2026-05-08 17:24 | 59.65449 | 17.92783 | 112 ft | 23 kts | 248° |
| 2026-05-08 17:24 | 59.65508 | 17.92550 | 105 ft | 24 kts | 336° |
| 2026-05-08 17:24 | 59.65666 | 17.92461 | 102 ft | 23 kts | 346° |
| 2026-05-08 17:24 | 59.65810 | 17.92438 | 106 ft | 19 kts | 7° |
| 2026-05-08 17:25 | 59.65963 | 17.92494 | 109 ft | 29 kts | 11° |
| 2026-05-08 17:25 | 59.66194 | 17.92578 | 114 ft | 35 kts | 9° |
| 2026-05-08 17:25 | 59.66417 | 17.92655 | 121 ft | 29 kts | 5° |
| 2026-05-08 17:25 | 59.66587 | 17.92566 | 124 ft | 19 kts | 338° |
| 2026-05-08 17:26 | 59.66614 | 17.92387 | 124 ft | 12 kts | 248° |
| 2026-05-08 17:26 | 59.66580 | 17.92355 | 123 ft | 0 kts | 191° |
| 2026-05-08 17:26 | 59.66560 | 17.92348 | 123 ft | 21 kts | 189° |
| 2026-05-08 17:26 | 59.66155 | 17.92201 | 116 ft | 93 kts | 190° |
| 2026-05-08 17:27 | 59.65326 | 17.91901 | 105 ft | 146 kts | 190° |
| 2026-05-08 17:27 | 59.64276 | 17.91501 | 638 ft | 150 kts | 191° |
| 2026-05-08 17:27 | 59.63254 | 17.91106 | 1332 ft | 154 kts | 188° |
| 2026-05-08 17:27 | 59.62125 | 17.90722 | 1712 ft | 175 kts | 189° |
| 2026-05-08 17:28 | 59.60998 | 17.89475 | 2013 ft | 206 kts | 229° |
| 2026-05-08 17:28 | 59.60183 | 17.86973 | 2508 ft | 225 kts | 237° |
| 2026-05-08 17:28 | 59.59390 | 17.84280 | 3370 ft | 227 kts | 237° |
| 2026-05-08 17:28 | 59.58598 | 17.81563 | 4213 ft | 231 kts | 239° |
| 2026-05-08 17:29 | 59.57831 | 17.78689 | 4996 ft | 238 kts | 240° |
| 2026-05-08 17:29 | 59.57061 | 17.75785 | 5848 ft | 240 kts | 235° |
| 2026-05-08 17:29 | 59.55942 | 17.73358 | 6695 ft | 241 kts | 216° |
| 2026-05-08 17:29 | 59.54482 | 17.71709 | 7498 ft | 244 kts | 206° |
| 2026-05-08 17:30 | 59.52952 | 17.70196 | 8266 ft | 248 kts | 206° |
| 2026-05-08 17:30 | 59.51397 | 17.68674 | 9091 ft | 251 kts | 206° |
| 2026-05-08 17:30 | 59.49829 | 17.67142 | 9939 ft | 253 kts | 206° |
| 2026-05-08 17:30 | 59.48245 | 17.65587 | 10739 ft | 256 kts | 206° |
| 2026-05-08 17:31 | 59.46645 | 17.64018 | 11501 ft | 258 kts | 206° |
| 2026-05-08 17:31 | 59.45047 | 17.62446 | 12179 ft | 266 kts | 206° |
| 2026-05-08 17:31 | 59.43322 | 17.60752 | 12446 ft | 289 kts | 206° |
| 2026-05-08 17:31 | 59.41428 | 17.58895 | 12683 ft | 312 kts | 206° |
| 2026-05-08 17:32 | 59.39442 | 17.56953 | 12883 ft | 335 kts | 206° |
| 2026-05-08 17:32 | 59.37293 | 17.54849 | 13026 ft | 357 kts | 206° |
| 2026-05-08 17:32 | 59.35010 | 17.52612 | 13238 ft | 375 kts | 206° |
| 2026-05-08 17:32 | 59.32653 | 17.50311 | 13788 ft | 382 kts | 206° |
| 2026-05-08 17:33 | 59.30261 | 17.47990 | 14404 ft | 385 kts | 206° |
| 2026-05-08 17:33 | 59.27848 | 17.45655 | 15005 ft | 388 kts | 206° |
| 2026-05-08 17:33 | 59.25423 | 17.43305 | 15598 ft | 391 kts | 206° |
| 2026-05-08 17:33 | 59.22981 | 17.40935 | 16177 ft | 394 kts | 206° |
| 2026-05-08 17:34 | 59.20520 | 17.38551 | 16770 ft | 396 kts | 206° |
| 2026-05-08 17:34 | 59.18045 | 17.36161 | 17370 ft | 397 kts | 206° |
| 2026-05-08 17:34 | 59.15560 | 17.33770 | 17937 ft | 400 kts | 206° |
| 2026-05-08 17:34 | 59.13055 | 17.31362 | 18470 ft | 403 kts | 206° |
| 2026-05-08 17:35 | 59.10531 | 17.28940 | 18943 ft | 406 kts | 206° |
| 2026-05-08 17:35 | 59.08000 | 17.26451 | 19409 ft | 409 kts | 209° |
| 2026-05-08 17:35 | 59.05673 | 17.23259 | 19879 ft | 412 kts | 219° |
| 2026-05-08 17:35 | 59.03464 | 17.19687 | 20315 ft | 415 kts | 219° |
| 2026-05-08 17:36 | 59.01242 | 17.16084 | 20739 ft | 418 kts | 219° |
| 2026-05-08 17:36 | 58.99001 | 17.12455 | 21182 ft | 421 kts | 219° |
| 2026-05-08 17:36 | 58.96741 | 17.08810 | 21597 ft | 423 kts | 218° |
| 2026-05-08 17:36 | 58.94471 | 17.05159 | 22006 ft | 426 kts | 218° |
| 2026-05-08 17:37 | 58.92180 | 17.01482 | 22411 ft | 429 kts | 218° |
| 2026-05-08 17:37 | 58.89873 | 16.97789 | 22809 ft | 431 kts | 218° |
| 2026-05-08 17:37 | 58.87555 | 16.94088 | 23204 ft | 434 kts | 218° |
| 2026-05-08 17:37 | 58.85221 | 16.90368 | 23598 ft | 436 kts | 218° |
| 2026-05-08 17:38 | 58.82872 | 16.86632 | 23978 ft | 439 kts | 218° |
| 2026-05-08 17:38 | 58.80509 | 16.82882 | 24304 ft | 441 kts | 218° |
| 2026-05-08 17:38 | 58.78133 | 16.79120 | 24636 ft | 443 kts | 218° |
| 2026-05-08 17:38 | 58.75747 | 16.75351 | 24964 ft | 444 kts | 218° |
| 2026-05-08 17:39 | 58.73352 | 16.71575 | 25286 ft | 445 kts | 218° |
| 2026-05-08 17:39 | 58.70951 | 16.67789 | 25595 ft | 447 kts | 218° |
| 2026-05-08 17:39 | 58.68543 | 16.63991 | 25908 ft | 448 kts | 218° |
| 2026-05-08 17:39 | 58.66131 | 16.60190 | 26206 ft | 450 kts | 218° |
| 2026-05-08 17:40 | 58.63699 | 16.56373 | 26508 ft | 451 kts | 218° |
| 2026-05-08 17:40 | 58.61266 | 16.52557 | 26806 ft | 453 kts | 218° |
| 2026-05-08 17:40 | 58.58820 | 16.48734 | 27098 ft | 454 kts | 217° |
| 2026-05-08 17:40 | 58.56388 | 16.44952 | 27264 ft | 459 kts | 217° |
| 2026-05-08 17:41 | 58.53918 | 16.41115 | 27884 ft | 452 kts | 217° |
| 2026-05-08 17:41 | 58.51496 | 16.37348 | 28525 ft | 447 kts | 217° |
| 2026-05-08 17:41 | 58.49084 | 16.33606 | 28918 ft | 447 kts | 217° |
| 2026-05-08 17:41 | 58.46660 | 16.29859 | 29235 ft | 449 kts | 217° |
| 2026-05-08 17:42 | 58.44226 | 16.26105 | 29526 ft | 451 kts | 217° |
| 2026-05-08 17:42 | 58.41781 | 16.22340 | 29811 ft | 453 kts | 217° |
| 2026-05-08 17:42 | 58.39327 | 16.18561 | 30094 ft | 454 kts | 217° |
| 2026-05-08 17:42 | 58.36866 | 16.14779 | 30464 ft | 454 kts | 217° |
| 2026-05-08 17:43 | 58.34409 | 16.11011 | 30780 ft | 453 kts | 217° |
| 2026-05-08 17:43 | 58.31953 | 16.07253 | 31109 ft | 453 kts | 217° |
| 2026-05-08 17:43 | 58.29498 | 16.03505 | 31435 ft | 452 kts | 217° |
| 2026-05-08 17:43 | 58.27045 | 15.99771 | 31765 ft | 452 kts | 217° |
| 2026-05-08 17:44 | 58.24596 | 15.96041 | 32094 ft | 451 kts | 217° |
| 2026-05-08 17:44 | 58.22148 | 15.92312 | 32413 ft | 451 kts | 217° |
| 2026-05-08 17:44 | 58.19697 | 15.88604 | 32730 ft | 450 kts | 217° |
| 2026-05-08 17:44 | 58.17225 | 15.84977 | 33063 ft | 449 kts | 216° |
| 2026-05-08 17:45 | 58.14725 | 15.81412 | 33384 ft | 449 kts | 215° |
| 2026-05-08 17:45 | 58.12218 | 15.77896 | 33693 ft | 449 kts | 215° |
| 2026-05-08 17:45 | 58.09704 | 15.74395 | 34017 ft | 448 kts | 215° |
| 2026-05-08 17:45 | 58.07197 | 15.70895 | 34333 ft | 448 kts | 215° |
| 2026-05-08 17:46 | 58.04699 | 15.67390 | 34601 ft | 448 kts | 216° |
| 2026-05-08 17:46 | 58.02206 | 15.63879 | 34899 ft | 446 kts | 216° |
| 2026-05-08 17:46 | 57.99726 | 15.60381 | 35193 ft | 445 kts | 216° |
| 2026-05-08 17:46 | 57.97245 | 15.56886 | 35457 ft | 445 kts | 216° |
| 2026-05-08 17:47 | 57.94763 | 15.53402 | 35694 ft | 445 kts | 216° |
| 2026-05-08 17:47 | 57.92285 | 15.49928 | 35966 ft | 444 kts | 216° |
| 2026-05-08 17:47 | 57.89807 | 15.46459 | 36195 ft | 444 kts | 216° |
| 2026-05-08 17:47 | 57.88130 | 15.44117 | 36341 ft | 444 kts | 216° |
| 2026-05-08 17:48 | 57.84850 | 15.39548 | 36641 ft | 443 kts | 216° |
| 2026-05-08 17:48 | 57.82374 | 15.36108 | 36878 ft | 443 kts | 216° |
| 2026-05-08 17:48 | 57.79892 | 15.32672 | 37059 ft | 443 kts | 216° |
| 2026-05-08 17:48 | 57.77410 | 15.29242 | 37280 ft | 443 kts | 216° |
| 2026-05-08 17:49 | 57.74936 | 15.25825 | 37539 ft | 441 kts | 216° |
| 2026-05-08 17:49 | 57.72464 | 15.22414 | 37733 ft | 442 kts | 216° |
| 2026-05-08 17:49 | 57.69990 | 15.19003 | 37908 ft | 442 kts | 216° |
| 2026-05-08 17:49 | 57.67516 | 15.15596 | 38123 ft | 441 kts | 216° |
| 2026-05-08 17:50 | 57.65045 | 15.12202 | 38289 ft | 441 kts | 216° |
| 2026-05-08 17:50 | 57.62568 | 15.08815 | 38320 ft | 442 kts | 216° |
| 2026-05-08 17:50 | 57.57613 | 15.02049 | 38312 ft | 441 kts | 216° |
| 2026-05-08 17:51 | 57.52654 | 14.95283 | 38315 ft | 442 kts | 216° |
| 2026-05-08 17:51 | 57.47684 | 14.88547 | 38315 ft | 442 kts | 216° |
| 2026-05-08 17:52 | 57.42710 | 14.81820 | 38315 ft | 442 kts | 216° |
| 2026-05-08 17:53 | 57.35239 | 14.71753 | 38315 ft | 443 kts | 216° |
| 2026-05-08 17:53 | 57.30254 | 14.65069 | 38302 ft | 443 kts | 216° |
| 2026-05-08 17:54 | 57.25260 | 14.58383 | 38300 ft | 443 kts | 216° |
| 2026-05-08 17:54 | 57.20256 | 14.51713 | 38298 ft | 443 kts | 216° |
| 2026-05-08 17:55 | 57.15249 | 14.45075 | 38298 ft | 443 kts | 216° |
| 2026-05-08 17:55 | 57.10237 | 14.38444 | 38300 ft | 444 kts | 216° |
| 2026-05-08 17:56 | 57.05252 | 14.31885 | 38299 ft | 444 kts | 216° |
| 2026-05-08 17:56 | 57.00198 | 14.25251 | 38308 ft | 444 kts | 216° |
| 2026-05-08 17:57 | 56.95204 | 14.18712 | 38312 ft | 444 kts | 216° |
| 2026-05-08 17:57 | 56.90176 | 14.12130 | 38309 ft | 444 kts | 216° |
| 2026-05-08 17:58 | 56.85140 | 14.05572 | 38299 ft | 444 kts | 216° |
| 2026-05-08 17:58 | 56.80099 | 13.99036 | 38303 ft | 445 kts | 216° |
| 2026-05-08 17:59 | 56.75049 | 13.92524 | 38300 ft | 445 kts | 216° |
| 2026-05-08 17:59 | 56.69990 | 13.86021 | 38309 ft | 445 kts | 216° |
| 2026-05-08 18:00 | 56.64933 | 13.79528 | 38303 ft | 445 kts | 216° |
| 2026-05-08 18:00 | 56.57342 | 13.69812 | 38302 ft | 445 kts | 216° |
| 2026-05-08 18:01 | 56.52273 | 13.63363 | 38300 ft | 445 kts | 216° |
| 2026-05-08 18:01 | 56.47204 | 13.56927 | 38311 ft | 445 kts | 216° |
| 2026-05-08 18:02 | 56.42980 | 13.51591 | 38309 ft | 446 kts | 216° |
| 2026-05-08 18:02 | 56.37036 | 13.44103 | 38303 ft | 446 kts | 216° |
| 2026-05-08 18:03 | 56.32807 | 13.38787 | 38308 ft | 446 kts | 216° |
| 2026-05-08 18:03 | 56.27714 | 13.32414 | 38312 ft | 446 kts | 216° |
| 2026-05-08 18:04 | 56.22613 | 13.26051 | 38319 ft | 446 kts | 216° |
| 2026-05-08 18:04 | 56.17512 | 13.19698 | 38325 ft | 446 kts | 216° |
| 2026-05-08 18:05 | 56.12412 | 13.13365 | 38320 ft | 446 kts | 216° |
| 2026-05-08 18:05 | 56.07305 | 13.07050 | 38311 ft | 446 kts | 216° |
| 2026-05-08 18:06 | 56.02195 | 13.00769 | 38298 ft | 446 kts | 216° |
| 2026-05-08 18:06 | 55.97090 | 12.94488 | 38300 ft | 445 kts | 216° |
| 2026-05-08 18:07 | 55.91988 | 12.88225 | 38307 ft | 445 kts | 216° |
| 2026-05-08 18:07 | 55.86870 | 12.81997 | 38303 ft | 445 kts | 215° |
| 2026-05-08 18:08 | 55.81750 | 12.75787 | 38310 ft | 446 kts | 215° |
| 2026-05-08 18:08 | 55.76658 | 12.69620 | 38312 ft | 446 kts | 215° |
| 2026-05-08 18:09 | 55.71501 | 12.63389 | 38316 ft | 446 kts | 215° |
| 2026-05-08 18:09 | 55.66408 | 12.57245 | 38319 ft | 446 kts | 215° |
| 2026-05-08 18:10 | 55.61283 | 12.51078 | 38308 ft | 445 kts | 215° |
| 2026-05-08 18:10 | 55.56115 | 12.44897 | 38310 ft | 445 kts | 215° |
| 2026-05-08 18:11 | 55.51016 | 12.38824 | 38294 ft | 445 kts | 215° |
| 2026-05-08 18:11 | 55.45690 | 12.32499 | 38294 ft | 445 kts | 215° |
| 2026-05-08 18:12 | 55.40554 | 12.26417 | 38297 ft | 445 kts | 215° |
| 2026-05-08 18:12 | 55.35417 | 12.20342 | 38295 ft | 445 kts | 215° |
| 2026-05-08 18:13 | 55.30283 | 12.14283 | 38293 ft | 445 kts | 215° |
| 2026-05-08 18:13 | 55.25143 | 12.08245 | 38288 ft | 444 kts | 215° |
| 2026-05-08 18:14 | 55.20001 | 12.02239 | 38282 ft | 444 kts | 215° |
| 2026-05-08 18:14 | 55.14853 | 11.96241 | 38272 ft | 444 kts | 215° |
| 2026-05-08 18:15 | 55.09742 | 11.90295 | 38275 ft | 444 kts | 215° |
| 2026-05-08 18:15 | 55.04593 | 11.84332 | 38278 ft | 444 kts | 215° |
| 2026-05-08 18:16 | 54.99442 | 11.78373 | 38274 ft | 444 kts | 215° |
| 2026-05-08 18:16 | 54.94283 | 11.72439 | 38273 ft | 445 kts | 215° |
| 2026-05-08 18:17 | 54.89119 | 11.66516 | 38271 ft | 445 kts | 215° |
| 2026-05-08 18:17 | 54.83957 | 11.60595 | 38274 ft | 445 kts | 215° |
| 2026-05-08 18:18 | 54.78794 | 11.54703 | 38271 ft | 445 kts | 215° |
| 2026-05-08 18:18 | 54.73622 | 11.48824 | 38272 ft | 445 kts | 215° |
| 2026-05-08 18:19 | 54.68445 | 11.42949 | 38272 ft | 445 kts | 215° |
| 2026-05-08 18:19 | 54.63264 | 11.37094 | 38273 ft | 445 kts | 215° |
| 2026-05-08 18:20 | 54.58085 | 11.31256 | 38266 ft | 445 kts | 215° |
| 2026-05-08 18:20 | 54.52906 | 11.25434 | 38248 ft | 444 kts | 215° |
| 2026-05-08 18:21 | 54.47726 | 11.19638 | 38244 ft | 444 kts | 215° |
| 2026-05-08 18:21 | 54.42555 | 11.13864 | 38241 ft | 444 kts | 215° |
| 2026-05-08 18:22 | 54.37372 | 11.08091 | 38244 ft | 444 kts | 215° |
| 2026-05-08 18:22 | 54.32187 | 11.02335 | 38245 ft | 444 kts | 214° |
| 2026-05-08 18:23 | 54.27063 | 10.96436 | 38247 ft | 443 kts | 218° |
| 2026-05-08 18:23 | 54.22162 | 10.90069 | 38224 ft | 443 kts | 220° |
| 2026-05-08 18:24 | 54.17290 | 10.83621 | 38233 ft | 443 kts | 219° |
| 2026-05-08 18:24 | 54.12357 | 10.77302 | 38223 ft | 444 kts | 218° |
| 2026-05-08 18:25 | 54.07393 | 10.71058 | 38232 ft | 444 kts | 218° |
| 2026-05-08 18:25 | 54.02422 | 10.64833 | 38221 ft | 444 kts | 218° |
| 2026-05-08 18:26 | 53.97456 | 10.58613 | 38222 ft | 443 kts | 218° |
| 2026-05-08 18:26 | 53.92494 | 10.52396 | 38227 ft | 443 kts | 218° |
| 2026-05-08 18:27 | 53.88371 | 10.47243 | 38225 ft | 443 kts | 218° |
| 2026-05-08 18:27 | 53.82568 | 10.40026 | 38222 ft | 443 kts | 218° |
| 2026-05-08 18:28 | 53.77602 | 10.33870 | 38200 ft | 442 kts | 218° |
| 2026-05-08 18:28 | 53.72638 | 10.27724 | 38189 ft | 442 kts | 218° |
| 2026-05-08 18:29 | 53.67671 | 10.21588 | 38193 ft | 442 kts | 218° |
| 2026-05-08 18:29 | 53.62702 | 10.15470 | 38199 ft | 443 kts | 218° |
| 2026-05-08 18:30 | 53.57720 | 10.09369 | 38200 ft | 443 kts | 218° |
| 2026-05-08 18:30 | 53.52740 | 10.03290 | 38194 ft | 443 kts | 218° |
| 2026-05-08 18:31 | 53.47757 | 9.97209 | 38201 ft | 443 kts | 218° |
| 2026-05-08 18:31 | 53.42775 | 9.91142 | 38190 ft | 443 kts | 218° |
| 2026-05-08 18:32 | 53.37780 | 9.85095 | 38190 ft | 443 kts | 218° |
| 2026-05-08 18:32 | 53.32779 | 9.79063 | 38181 ft | 443 kts | 218° |
| 2026-05-08 18:33 | 53.27786 | 9.73041 | 38183 ft | 443 kts | 218° |
| 2026-05-08 18:33 | 53.22785 | 9.67032 | 38187 ft | 443 kts | 218° |
| 2026-05-08 18:34 | 53.17778 | 9.61043 | 38184 ft | 443 kts | 218° |
| 2026-05-08 18:34 | 53.12771 | 9.55065 | 38187 ft | 443 kts | 218° |
| 2026-05-08 18:35 | 53.07791 | 9.49134 | 38188 ft | 443 kts | 218° |
| 2026-05-08 18:35 | 53.03588 | 9.44147 | 38186 ft | 443 kts | 218° |
| 2026-05-08 18:36 | 52.98574 | 9.38208 | 38187 ft | 443 kts | 218° |
| 2026-05-08 18:36 | 52.93553 | 9.32276 | 38185 ft | 443 kts | 218° |
| 2026-05-08 18:37 | 52.88528 | 9.26361 | 38171 ft | 443 kts | 218° |
| 2026-05-08 18:37 | 52.83506 | 9.20465 | 38169 ft | 443 kts | 217° |
| 2026-05-08 18:38 | 52.78474 | 9.14579 | 38177 ft | 443 kts | 218° |
| 2026-05-08 18:38 | 52.73447 | 9.08704 | 38185 ft | 443 kts | 217° |
| 2026-05-08 18:39 | 52.68411 | 9.02844 | 38180 ft | 443 kts | 217° |
| 2026-05-08 18:39 | 52.63365 | 8.97001 | 38170 ft | 443 kts | 217° |
| 2026-05-08 18:40 | 52.58319 | 8.91170 | 38176 ft | 443 kts | 217° |
| 2026-05-08 18:40 | 52.53309 | 8.85385 | 38172 ft | 443 kts | 217° |
| 2026-05-08 18:41 | 52.48263 | 8.79573 | 38180 ft | 443 kts | 217° |
| 2026-05-08 18:41 | 52.43211 | 8.73769 | 38166 ft | 443 kts | 217° |
| 2026-05-08 18:42 | 52.38161 | 8.67995 | 38173 ft | 443 kts | 217° |
| 2026-05-08 18:42 | 52.33104 | 8.62238 | 38179 ft | 443 kts | 217° |
| 2026-05-08 18:43 | 52.28043 | 8.56490 | 38180 ft | 443 kts | 217° |
| 2026-05-08 18:43 | 52.22980 | 8.50747 | 38173 ft | 443 kts | 217° |
| 2026-05-08 18:44 | 52.17915 | 8.45010 | 38166 ft | 443 kts | 217° |
| 2026-05-08 18:44 | 52.12845 | 8.39296 | 38164 ft | 443 kts | 217° |
| 2026-05-08 18:45 | 52.07775 | 8.33590 | 38165 ft | 443 kts | 217° |
| 2026-05-08 18:45 | 52.02699 | 8.27899 | 38161 ft | 444 kts | 217° |
| 2026-05-08 18:46 | 51.97615 | 8.22214 | 38142 ft | 443 kts | 217° |
| 2026-05-08 18:46 | 51.92536 | 8.16540 | 38147 ft | 443 kts | 217° |
| 2026-05-08 18:47 | 51.87451 | 8.10878 | 38148 ft | 443 kts | 217° |
| 2026-05-08 18:47 | 51.82395 | 8.05279 | 38150 ft | 443 kts | 217° |
| 2026-05-08 18:48 | 51.77305 | 7.99654 | 38137 ft | 443 kts | 217° |
| 2026-05-08 18:48 | 51.72215 | 7.94036 | 38138 ft | 443 kts | 217° |
| 2026-05-08 18:49 | 51.67117 | 7.88430 | 38137 ft | 444 kts | 217° |
| 2026-05-08 18:49 | 51.62008 | 7.82841 | 38138 ft | 444 kts | 217° |
| 2026-05-08 18:50 | 51.56898 | 7.77260 | 38143 ft | 444 kts | 217° |
| 2026-05-08 18:50 | 51.51787 | 7.71678 | 38144 ft | 444 kts | 216° |
| 2026-05-08 18:51 | 51.46674 | 7.66107 | 38140 ft | 444 kts | 216° |
| 2026-05-08 18:51 | 51.41549 | 7.60550 | 38141 ft | 445 kts | 216° |
| 2026-05-08 18:52 | 51.36419 | 7.55008 | 38139 ft | 445 kts | 216° |
| 2026-05-08 18:52 | 51.31280 | 7.49471 | 38120 ft | 445 kts | 216° |
| 2026-05-08 18:53 | 51.26142 | 7.43936 | 38120 ft | 446 kts | 216° |
| 2026-05-08 18:53 | 51.20994 | 7.38409 | 38131 ft | 446 kts | 216° |
| 2026-05-08 18:54 | 51.15838 | 7.32900 | 38130 ft | 446 kts | 216° |
| 2026-05-08 18:54 | 51.10687 | 7.27398 | 38129 ft | 446 kts | 216° |
| 2026-05-08 18:55 | 51.02948 | 7.19169 | 38125 ft | 446 kts | 216° |
| 2026-05-08 18:56 | 50.97784 | 7.13710 | 38124 ft | 446 kts | 216° |
| 2026-05-08 18:56 | 50.92622 | 7.08255 | 38122 ft | 446 kts | 216° |
| 2026-05-08 18:57 | 50.87460 | 7.02811 | 38117 ft | 446 kts | 216° |
| 2026-05-08 18:57 | 50.82294 | 6.97373 | 38112 ft | 446 kts | 216° |
| 2026-05-08 18:58 | 50.77112 | 6.91957 | 38117 ft | 446 kts | 216° |
| 2026-05-08 18:58 | 50.71930 | 6.86544 | 38113 ft | 447 kts | 216° |
| 2026-05-08 18:59 | 50.66746 | 6.81130 | 38107 ft | 447 kts | 216° |
| 2026-05-08 18:59 | 50.61595 | 6.75763 | 38114 ft | 447 kts | 215° |
| 2026-05-08 19:00 | 50.56402 | 6.70376 | 38116 ft | 447 kts | 215° |
| 2026-05-08 19:00 | 50.51207 | 6.65001 | 38122 ft | 447 kts | 215° |
| 2026-05-08 19:01 | 50.46008 | 6.59633 | 38115 ft | 447 kts | 215° |
| 2026-05-08 19:01 | 50.40801 | 6.54284 | 38117 ft | 447 kts | 215° |
| 2026-05-08 19:02 | 50.35595 | 6.48945 | 38122 ft | 447 kts | 215° |
| 2026-05-08 19:02 | 50.30390 | 6.43625 | 38116 ft | 447 kts | 215° |
| 2026-05-08 19:03 | 50.25183 | 6.38307 | 38106 ft | 447 kts | 215° |
| 2026-05-08 19:03 | 50.19968 | 6.32991 | 38099 ft | 447 kts | 215° |
| 2026-05-08 19:04 | 50.14753 | 6.27695 | 38098 ft | 447 kts | 215° |
| 2026-05-08 19:04 | 50.09527 | 6.22417 | 38100 ft | 447 kts | 215° |
| 2026-05-08 19:05 | 50.04304 | 6.17146 | 38093 ft | 447 kts | 215° |
| 2026-05-08 19:05 | 49.99078 | 6.11877 | 38085 ft | 447 kts | 215° |
| 2026-05-08 19:06 | 49.93859 | 6.06630 | 38086 ft | 447 kts | 215° |
| 2026-05-08 19:06 | 49.88634 | 6.01395 | 38085 ft | 447 kts | 215° |
| 2026-05-08 19:07 | 49.83414 | 5.96180 | 37634 ft | 445 kts | 215° |
| 2026-05-08 19:07 | 49.80807 | 5.93585 | 36903 ft | 446 kts | 215° |
| 2026-05-08 19:07 | 49.78216 | 5.90955 | 36188 ft | 445 kts | 219° |
| 2026-05-08 19:07 | 49.75895 | 5.87816 | 35492 ft | 442 kts | 229° |
| 2026-05-08 19:08 | 49.73994 | 5.84109 | 34754 ft | 439 kts | 240° |
| 2026-05-08 19:08 | 49.72570 | 5.79958 | 34014 ft | 437 kts | 251° |
| 2026-05-08 19:08 | 49.71547 | 5.75609 | 33135 ft | 437 kts | 253° |
| 2026-05-08 19:08 | 49.70528 | 5.71170 | 32377 ft | 439 kts | 253° |
| 2026-05-08 19:09 | 49.69491 | 5.66715 | 32126 ft | 443 kts | 252° |
| 2026-05-08 19:09 | 49.67384 | 5.57746 | 32080 ft | 446 kts | 252° |
| 2026-05-08 19:10 | 49.65258 | 5.48742 | 32075 ft | 446 kts | 252° |
| 2026-05-08 19:10 | 49.63133 | 5.39743 | 32063 ft | 447 kts | 252° |
| 2026-05-08 19:11 | 49.61070 | 5.30717 | 32081 ft | 445 kts | 255° |
| 2026-05-08 19:11 | 49.59354 | 5.21609 | 32071 ft | 439 kts | 265° |
| 2026-05-08 19:12 | 49.59250 | 5.12299 | 32073 ft | 434 kts | 274° |
| 2026-05-08 19:12 | 49.58715 | 5.03024 | 31180 ft | 437 kts | 265° |
| 2026-05-08 19:12 | 49.58239 | 4.98364 | 29998 ft | 445 kts | 264° |
| 2026-05-08 19:13 | 49.57731 | 4.93621 | 28598 ft | 452 kts | 263° |
| 2026-05-08 19:13 | 49.57206 | 4.88815 | 27336 ft | 458 kts | 264° |
| 2026-05-08 19:13 | 49.56676 | 4.83951 | 26537 ft | 462 kts | 263° |
| 2026-05-08 19:13 | 49.56145 | 4.79049 | 26240 ft | 466 kts | 263° |
| 2026-05-08 19:14 | 49.55621 | 4.74106 | 26045 ft | 468 kts | 263° |
| 2026-05-08 19:14 | 49.55114 | 4.69143 | 26082 ft | 470 kts | 263° |
| 2026-05-08 19:14 | 49.54619 | 4.64179 | 26071 ft | 470 kts | 264° |
| 2026-05-08 19:14 | 49.54129 | 4.59190 | 25611 ft | 471 kts | 263° |
| 2026-05-08 19:15 | 49.53643 | 4.54267 | 25131 ft | 472 kts | 263° |
| 2026-05-08 19:15 | 49.53144 | 4.49294 | 24664 ft | 463 kts | 262° |
| 2026-05-08 19:15 | 49.52650 | 4.44474 | 24255 ft | 451 kts | 263° |
| 2026-05-08 19:15 | 49.52167 | 4.39809 | 23860 ft | 429 kts | 263° |
| 2026-05-08 19:16 | 49.51707 | 4.35413 | 23427 ft | 405 kts | 262° |
| 2026-05-08 19:16 | 49.51265 | 4.31207 | 22961 ft | 394 kts | 262° |
| 2026-05-08 19:16 | 49.50834 | 4.27070 | 22505 ft | 391 kts | 262° |
| 2026-05-08 19:16 | 49.50405 | 4.22968 | 22075 ft | 386 kts | 262° |
| 2026-05-08 19:17 | 49.49980 | 4.18912 | 21652 ft | 383 kts | 262° |
| 2026-05-08 19:17 | 49.49554 | 4.14890 | 21235 ft | 380 kts | 262° |
| 2026-05-08 19:17 | 49.49132 | 4.10894 | 20824 ft | 377 kts | 262° |
| 2026-05-08 19:17 | 49.48713 | 4.06929 | 20419 ft | 375 kts | 261° |
| 2026-05-08 19:18 | 49.48296 | 4.02989 | 20017 ft | 372 kts | 261° |
| 2026-05-08 19:18 | 49.47878 | 3.99078 | 19620 ft | 369 kts | 261° |
| 2026-05-08 19:18 | 49.47461 | 3.95196 | 19230 ft | 367 kts | 261° |
| 2026-05-08 19:18 | 49.47048 | 3.91342 | 18847 ft | 364 kts | 261° |
| 2026-05-08 19:19 | 49.46637 | 3.87521 | 18468 ft | 361 kts | 260° |
| 2026-05-08 19:19 | 49.46223 | 3.83724 | 18049 ft | 359 kts | 260° |
| 2026-05-08 19:19 | 49.45808 | 3.79947 | 17614 ft | 357 kts | 260° |
| 2026-05-08 19:19 | 49.45395 | 3.76210 | 17182 ft | 354 kts | 260° |
| 2026-05-08 19:20 | 49.44987 | 3.72495 | 16771 ft | 351 kts | 260° |
| 2026-05-08 19:20 | 49.44850 | 3.71248 | 16625 ft | 350 kts | 260° |
| 2026-05-08 19:20 | 49.44178 | 3.65190 | 16001 ft | 340 kts | 260° |
| 2026-05-08 19:20 | 49.43783 | 3.61665 | 15824 ft | 330 kts | 260° |
| 2026-05-08 19:21 | 49.43399 | 3.58239 | 15645 ft | 321 kts | 260° |
| 2026-05-08 19:21 | 49.43025 | 3.54903 | 15477 ft | 313 kts | 259° |
| 2026-05-08 19:21 | 49.42661 | 3.51640 | 15299 ft | 308 kts | 259° |
| 2026-05-08 19:21 | 49.42300 | 3.48409 | 15150 ft | 306 kts | 259° |
| 2026-05-08 19:22 | 49.41885 | 3.45210 | 15049 ft | 305 kts | 253° |
| 2026-05-08 19:22 | 49.41152 | 3.42204 | 15076 ft | 305 kts | 247° |
| 2026-05-08 19:22 | 49.40345 | 3.39192 | 15076 ft | 305 kts | 247° |
| 2026-05-08 19:22 | 49.39540 | 3.36176 | 15077 ft | 305 kts | 247° |
| 2026-05-08 19:23 | 49.38734 | 3.33158 | 15077 ft | 305 kts | 247° |
| 2026-05-08 19:23 | 49.37927 | 3.30144 | 15078 ft | 305 kts | 247° |
| 2026-05-08 19:23 | 49.37120 | 3.27134 | 15078 ft | 305 kts | 247° |
| 2026-05-08 19:23 | 49.36320 | 3.24134 | 14822 ft | 303 kts | 247° |
| 2026-05-08 19:24 | 49.35523 | 3.21155 | 14484 ft | 301 kts | 247° |
| 2026-05-08 19:24 | 49.34725 | 3.18187 | 14170 ft | 300 kts | 247° |
| 2026-05-08 19:24 | 49.33930 | 3.15241 | 13855 ft | 298 kts | 247° |
| 2026-05-08 19:24 | 49.33137 | 3.12313 | 13506 ft | 296 kts | 247° |
| 2026-05-08 19:25 | 49.32346 | 3.09404 | 13165 ft | 294 kts | 247° |
| 2026-05-08 19:25 | 49.31561 | 3.06518 | 12816 ft | 293 kts | 247° |
| 2026-05-08 19:25 | 49.31034 | 3.04576 | 12592 ft | 291 kts | 247° |
| 2026-05-08 19:25 | 49.30260 | 3.01717 | 12244 ft | 290 kts | 247° |
| 2026-05-08 19:26 | 49.29491 | 2.98876 | 11906 ft | 288 kts | 247° |
| 2026-05-08 19:26 | 49.28734 | 2.96089 | 11575 ft | 286 kts | 247° |
| 2026-05-08 19:26 | 49.27972 | 2.93285 | 11242 ft | 285 kts | 247° |
| 2026-05-08 19:26 | 49.27212 | 2.90498 | 11056 ft | 283 kts | 246° |
| 2026-05-08 19:27 | 49.26452 | 2.87716 | 11078 ft | 283 kts | 247° |
| 2026-05-08 19:27 | 49.25695 | 2.84944 | 11069 ft | 282 kts | 247° |
| 2026-05-08 19:27 | 49.24939 | 2.82180 | 11080 ft | 281 kts | 247° |
| 2026-05-08 19:27 | 49.24182 | 2.79418 | 11080 ft | 281 kts | 247° |
| 2026-05-08 19:28 | 49.23425 | 2.76662 | 11077 ft | 281 kts | 247° |
| 2026-05-08 19:28 | 49.22666 | 2.73900 | 11075 ft | 281 kts | 247° |
| 2026-05-08 19:28 | 49.21908 | 2.71141 | 11076 ft | 281 kts | 247° |
| 2026-05-08 19:28 | 49.21150 | 2.68379 | 11068 ft | 282 kts | 248° |
| 2026-05-08 19:29 | 49.20589 | 2.65523 | 10917 ft | 280 kts | 256° |
| 2026-05-08 19:29 | 49.20160 | 2.62622 | 10521 ft | 280 kts | 257° |
| 2026-05-08 19:29 | 49.19735 | 2.59717 | 10157 ft | 279 kts | 257° |
| 2026-05-08 19:29 | 49.19311 | 2.56825 | 9747 ft | 279 kts | 257° |
| 2026-05-08 19:30 | 49.18885 | 2.53919 | 9266 ft | 281 kts | 257° |
| 2026-05-08 19:30 | 49.18466 | 2.51034 | 8796 ft | 276 kts | 257° |
| 2026-05-08 19:30 | 49.18055 | 2.48181 | 8332 ft | 274 kts | 257° |
| 2026-05-08 19:30 | 49.17651 | 2.45339 | 7892 ft | 273 kts | 257° |
| 2026-05-08 19:31 | 49.17254 | 2.42508 | 7487 ft | 273 kts | 257° |
| 2026-05-08 19:31 | 49.16863 | 2.39678 | 7126 ft | 271 kts | 257° |
| 2026-05-08 19:31 | 49.16476 | 2.36862 | 7055 ft | 272 kts | 257° |
| 2026-05-08 19:31 | 49.16093 | 2.34024 | 7061 ft | 273 kts | 257° |
| 2026-05-08 19:32 | 49.15712 | 2.31185 | 7057 ft | 273 kts | 257° |
| 2026-05-08 19:32 | 49.15324 | 2.28345 | 7060 ft | 273 kts | 257° |
| 2026-05-08 19:32 | 49.14934 | 2.25499 | 7040 ft | 273 kts | 257° |
| 2026-05-08 19:32 | 49.14541 | 2.22675 | 6676 ft | 271 kts | 257° |
| 2026-05-08 19:33 | 49.14156 | 2.19857 | 6241 ft | 271 kts | 257° |
| 2026-05-08 19:33 | 49.13771 | 2.17040 | 5800 ft | 270 kts | 257° |
| 2026-05-08 19:33 | 49.13388 | 2.14226 | 5343 ft | 271 kts | 257° |
| 2026-05-08 19:33 | 49.13008 | 2.11408 | 4892 ft | 271 kts | 257° |
| 2026-05-08 19:34 | 49.12618 | 2.08594 | 4444 ft | 271 kts | 257° |
| 2026-05-08 19:34 | 49.12082 | 2.05857 | 4059 ft | 267 kts | 239° |
| 2026-05-08 19:34 | 49.10838 | 2.03815 | 4003 ft | 265 kts | 210° |
| 2026-05-08 19:34 | 49.09109 | 2.02919 | 4013 ft | 264 kts | 186° |
| 2026-05-08 19:35 | 49.07280 | 2.02652 | 4014 ft | 264 kts | 182° |
| 2026-05-08 19:35 | 49.05444 | 2.02463 | 4008 ft | 264 kts | 180° |
| 2026-05-08 19:35 | 49.03660 | 2.02942 | 4009 ft | 262 kts | 155° |
| 2026-05-08 19:35 | 49.02133 | 2.04406 | 4005 ft | 260 kts | 136° |
| 2026-05-08 19:36 | 49.00988 | 2.06512 | 4012 ft | 258 kts | 119° |
| 2026-05-08 19:36 | 49.00320 | 2.09035 | 4013 ft | 258 kts | 102° |
| 2026-05-08 19:36 | 49.00189 | 2.11741 | 4012 ft | 257 kts | 85° |
| 2026-05-08 19:36 | 49.00342 | 2.14419 | 4011 ft | 257 kts | 85° |
| 2026-05-08 19:37 | 49.00497 | 2.17038 | 4006 ft | 239 kts | 85° |
| 2026-05-08 19:37 | 49.00636 | 2.19469 | 4006 ft | 222 kts | 85° |
| 2026-05-08 19:37 | 49.00764 | 2.21726 | 4008 ft | 206 kts | 85° |
| 2026-05-08 19:37 | 49.00883 | 2.23826 | 3992 ft | 192 kts | 85° |
| 2026-05-08 19:38 | 49.00996 | 2.25811 | 3796 ft | 185 kts | 85° |
| 2026-05-08 19:38 | 49.01105 | 2.27746 | 3568 ft | 183 kts | 85° |
| 2026-05-08 19:38 | 49.01213 | 2.29668 | 3330 ft | 182 kts | 84° |
| 2026-05-08 19:38 | 49.01320 | 2.31582 | 3086 ft | 181 kts | 84° |
| 2026-05-08 19:39 | 49.01427 | 2.33487 | 2849 ft | 180 kts | 84° |
| 2026-05-08 19:39 | 49.01532 | 2.35383 | 2602 ft | 179 kts | 85° |
| 2026-05-08 19:39 | 49.01637 | 2.37263 | 2363 ft | 174 kts | 84° |
| 2026-05-08 19:39 | 49.01733 | 2.39005 | 2168 ft | 154 kts | 84° |
| 2026-05-08 19:40 | 49.01819 | 2.40559 | 1951 ft | 142 kts | 84° |
| 2026-05-08 19:40 | 49.01899 | 2.42022 | 1758 ft | 136 kts | 84° |
| 2026-05-08 19:40 | 49.01977 | 2.43451 | 1572 ft | 135 kts | 84° |
| 2026-05-08 19:40 | 49.02060 | 2.44872 | 1413 ft | 135 kts | 84° |
| 2026-05-08 19:41 | 49.02129 | 2.46301 | 1189 ft | 136 kts | 86° |
| 2026-05-08 19:41 | 49.02198 | 2.47736 | 1031 ft | 136 kts | 82° |
| 2026-05-08 19:41 | 49.02299 | 2.49166 | 793 ft | 135 kts | 84° |
| 2026-05-08 19:41 | 49.02368 | 2.50600 | 641 ft | 136 kts | 84° |
| 2026-05-08 19:42 | 49.02451 | 2.52024 | 461 ft | 135 kts | 83° |
| 2026-05-08 19:42 | 49.02521 | 2.53433 | 358 ft | 126 kts | 84° |
| 2026-05-08 19:42 | 49.02579 | 2.54448 | 359 ft | 70 kts | 85° |
| 2026-05-08 19:42 | 49.02604 | 2.54971 | 356 ft | 37 kts | 89° |
| 2026-05-08 19:43 | 49.02568 | 2.55284 | 356 ft | 22 kts | 110° |
| 2026-05-08 19:43 | 49.02514 | 2.55470 | 359 ft | 15 kts | 116° |
| 2026-05-08 19:43 | 49.02447 | 2.55596 | 359 ft | 16 kts | 154° |
| 2026-05-08 19:43 | 49.02337 | 2.55623 | 355 ft | 15 kts | 174° |
| 2026-05-08 19:44 | 49.02234 | 2.55634 | 354 ft | 14 kts | 176° |
| 2026-05-08 19:44 | 49.02142 | 2.55643 | 357 ft | 13 kts | 180° |
| 2026-05-08 19:44 | 49.02075 | 2.55577 | 359 ft | 11 kts | 240° |
| 2026-05-08 19:44 | 49.02067 | 2.55543 | 359 ft | 0 kts | 258° |
| 2026-05-08 19:46 | 49.02066 | 2.55533 | 359 ft | 2 kts | 260° |
| 2026-05-08 19:46 | 49.02064 | 2.55515 | 357 ft | 3 kts | 262° |
| 2026-05-08 19:46 | 49.02051 | 2.55276 | 354 ft | 14 kts | 265° |
| 2026-05-08 19:47 | 49.02046 | 2.55160 | 361 ft | 9 kts | 267° |
| 2026-05-08 19:47 | 49.02044 | 2.55113 | 357 ft | 0 kts | 267° |
| 2026-05-08 19:47 | 49.02044 | 2.55109 | 357 ft | 1 kts | 267° |
| 2026-05-08 19:47 | 49.02043 | 2.55082 | 354 ft | 5 kts | 265° |
| 2026-05-08 19:48 | 49.02019 | 2.55056 | 357 ft | 4 kts | 189° |
| 2026-05-08 19:48 | 49.01975 | 2.55064 | 357 ft | 9 kts | 168° |
| 2026-05-08 19:48 | 49.01916 | 2.55083 | 361 ft | 8 kts | 168° |
| 2026-05-08 19:48 | 49.01871 | 2.55140 | 357 ft | 12 kts | 114° |
| 2026-05-08 19:49 | 49.01868 | 2.55272 | 359 ft | 14 kts | 91° |
| 2026-05-08 19:49 | 49.01872 | 2.55428 | 354 ft | 16 kts | 83° |
| 2026-05-08 19:49 | 49.01883 | 2.55543 | 354 ft | 9 kts | 83° |
| 2026-05-08 19:49 | 49.01888 | 2.55634 | 358 ft | 8 kts | 84° |
| 2026-05-08 19:50 | 49.01894 | 2.55720 | 360 ft | 8 kts | 84° |
| 2026-05-08 19:50 | 49.01898 | 2.55804 | 354 ft | 8 kts | 87° |
| 2026-05-08 19:50 | 49.01901 | 2.55881 | 354 ft | 7 kts | 86° |
| 2026-05-08 19:50 | 49.01904 | 2.55964 | 359 ft | 12 kts | 86° |
| 2026-05-08 19:51 | 49.01910 | 2.56144 | 354 ft | 20 kts | 87° |
| 2026-05-08 19:51 | 49.01928 | 2.56373 | 356 ft | 25 kts | 81° |
| 2026-05-08 19:51 | 49.01943 | 2.56652 | 354 ft | 27 kts | 86° |
| 2026-05-08 19:51 | 49.01958 | 2.56946 | 354 ft | 28 kts | 85° |
| 2026-05-08 19:52 | 49.01978 | 2.57250 | 359 ft | 29 kts | 85° |
| 2026-05-08 19:52 | 49.01993 | 2.57564 | 354 ft | 30 kts | 86° |
| 2026-05-08 19:52 | 49.01990 | 2.57801 | 357 ft | 23 kts | 109° |
| 2026-05-08 19:52 | 49.01931 | 2.58006 | 362 ft | 17 kts | 100° |
| 2026-05-08 19:53 | 49.01844 | 2.58118 | 356 ft | 18 kts | 168° |
| 2026-05-08 19:53 | 49.01719 | 2.58138 | 362 ft | 18 kts | 175° |
| 2026-05-08 19:53 | 49.01598 | 2.58152 | 361 ft | 17 kts | 176° |
| 2026-05-08 19:53 | 49.01488 | 2.58164 | 359 ft | 15 kts | 177° |
| 2026-05-08 19:54 | 49.01388 | 2.58179 | 354 ft | 14 kts | 173° |
| 2026-05-08 19:54 | 49.01297 | 2.58191 | 357 ft | 12 kts | 176° |
| 2026-05-08 19:54 | 49.01214 | 2.58200 | 357 ft | 11 kts | 174° |
| 2026-05-08 19:54 | 49.01139 | 2.58209 | 356 ft | 10 kts | 177° |
| 2026-05-08 19:55 | 49.01067 | 2.58215 | 354 ft | 12 kts | 176° |
| 2026-05-08 19:55 | 49.00962 | 2.58214 | 354 ft | 18 kts | 195° |
| 2026-05-08 19:55 | 49.00903 | 2.58005 | 354 ft | 28 kts | 266° |
| 2026-05-08 19:55 | 49.00893 | 2.57810 | 362 ft | 0 kts | 265° |
| 2026-05-08 19:57 | 49.00892 | 2.57796 | 358 ft | 7 kts | 265° |
| 2026-05-08 19:57 | 49.00882 | 2.57628 | 356 ft | 24 kts | 265° |
| 2026-05-08 19:57 | 49.00867 | 2.57350 | 354 ft | 28 kts | 265° |
| 2026-05-08 19:57 | 49.00851 | 2.57048 | 359 ft | 30 kts | 265° |
| 2026-05-08 19:58 | 49.00833 | 2.56725 | 354 ft | 31 kts | 265° |
| 2026-05-08 19:58 | 49.00822 | 2.56539 | 358 ft | 8 kts | 265° |
| 2026-05-08 19:58 | 49.00821 | 2.56532 | 361 ft | 0 kts | 265° |
| 2026-05-08 19:59 | 49.00821 | 2.56522 | 359 ft | 3 kts | 263° |
| 2026-05-08 19:59 | 49.00785 | 2.56461 | 359 ft | 13 kts | 207° |
| 2026-05-08 20:00 | 49.00691 | 2.56457 | 354 ft | 11 kts | 169° |
| 2026-05-08 20:00 | 49.00623 | 2.56505 | 360 ft | 10 kts | 136° |
| 2026-05-08 20:00 | 49.00616 | 2.56602 | 354 ft | 11 kts | 82° |
| 2026-05-08 20:00 | 49.00624 | 2.56746 | 361 ft | 15 kts | 85° |
| 2026-05-08 20:01 | 49.00634 | 2.56915 | 354 ft | 12 kts | 85° |
| 2026-05-08 20:01 | 49.00583 | 2.56981 | 362 ft | 11 kts | 176° |
| 2026-05-08 20:01 | 49.00544 | 2.56957 | 360 ft | 0 kts | 236° |